createdAt,value
2022-08-14T00:02:02.909Z,11.43
2022-08-14T00:04:35.508Z,11.88
2022-08-14T00:07:14.759Z,11.20
2022-08-14T00:10:01.674Z,10.90
2022-08-14T00:12:42.477Z,10.90
2022-08-14T00:15:19.463Z,10.20
2022-08-14T00:17:53.440Z,10.23
2022-08-14T00:20:30.424Z,11.23
2022-08-14T00:23:00.437Z,10.27
2022-08-14T00:25:42.851Z,9.90
2022-08-14T00:28:17.853Z,10.27
2022-08-14T00:30:48.364Z,13.13
2022-08-14T00:33:17.471Z,9.75
2022-08-14T00:36:37.397Z,9.35
2022-08-14T00:38:36.792Z,9.20
2022-08-14T00:41:07.095Z,10.98
2022-08-14T00:43:41.731Z,8.30
2022-08-14T00:46:32.238Z,9.30
2022-08-14T00:49:02.129Z,9.45
2022-08-14T00:51:37.915Z,9.18
2022-08-14T00:54:16.881Z,8.55
2022-08-14T00:56:50.540Z,8.60
2022-08-14T00:59:20.461Z,9.48
2022-08-14T01:01:52.765Z,8.32
2022-08-14T01:04:51.313Z,8.73
2022-08-14T01:07:21.356Z,8.18
2022-08-14T01:09:53.387Z,9.98
2022-08-14T01:12:27.370Z,8.38
2022-08-14T01:15:02.832Z,7.70
2022-08-14T01:17:49.627Z,7.57
2022-08-14T01:20:39.855Z,7.75
2022-08-14T01:23:18.762Z,7.90
2022-08-14T01:25:51.217Z,8.05
2022-08-14T01:28:46.080Z,7.32
2022-08-14T01:31:18.532Z,8.15
2022-08-14T01:34:00.091Z,6.63
2022-08-14T01:36:41.716Z,7.43
2022-08-14T01:39:16.818Z,6.38
2022-08-14T01:41:56.227Z,6.45
2022-08-14T01:44:32.855Z,8.00
2022-08-14T01:47:05.798Z,9.55
2022-08-14T01:49:42.723Z,8.52
2022-08-14T01:52:34.421Z,7.70
2022-08-14T01:55:06.714Z,8.02
2022-08-14T01:58:00.342Z,8.35
2022-08-14T02:00:29.492Z,6.40
2022-08-14T02:03:06.804Z,7.93
2022-08-14T02:05:39.348Z,6.00
2022-08-14T02:08:10.354Z,6.18
2022-08-14T02:10:47.280Z,7.22
2022-08-14T02:13:19.125Z,6.07
2022-08-14T02:15:48.644Z,6.53
2022-08-14T02:18:20.512Z,9.23
2022-08-14T02:20:51.359Z,7.05
2022-08-14T02:23:31.916Z,6.13
2022-08-14T02:26:24.160Z,5.90
2022-08-14T02:29:00.370Z,6.43
2022-08-14T02:31:42.291Z,8.52
2022-08-14T02:34:22.355Z,6.05
2022-08-14T02:37:04.765Z,5.43
2022-08-14T02:39:40.581Z,8.23
2022-08-14T02:42:13.626Z,5.47
2022-08-14T02:44:49.447Z,6.13
2022-08-14T02:47:21.142Z,7.45
2022-08-14T02:49:54.824Z,6.32
2022-08-14T02:52:55.845Z,10.18
2022-08-14T02:55:15.768Z,8.48
2022-08-14T02:58:03.316Z,5.53
2022-08-14T03:00:40.071Z,8.15
2022-08-14T03:03:09.611Z,8.43
2022-08-14T03:05:41.260Z,7.95
2022-08-14T03:08:17.111Z,10.15
2022-08-14T03:10:50.025Z,8.98
2022-08-14T03:13:22.617Z,6.97
2022-08-14T03:15:56.125Z,8.60
2022-08-14T03:18:32.615Z,8.23
2022-08-14T03:21:04.470Z,5.82
2022-08-14T03:23:38.707Z,9.52
2022-08-14T03:26:13.163Z,8.55
2022-08-14T03:28:51.205Z,11.50
2022-08-14T03:31:22.119Z,8.35
2022-08-14T03:33:56.018Z,7.07
2022-08-14T03:37:39.532Z,6.22
2022-08-14T03:39:21.518Z,7.25
2022-08-14T03:41:54.633Z,9.48
2022-08-14T03:45:27.291Z,8.18
2022-08-14T03:47:15.309Z,11.75
2022-08-14T03:49:50.073Z,10.90
2022-08-14T03:52:38.871Z,13.02
2022-08-14T03:55:12.344Z,7.60
2022-08-14T03:57:41.602Z,8.15
2022-08-14T04:00:43.426Z,7.75
2022-08-14T04:03:08.487Z,10.77
2022-08-14T04:05:42.818Z,8.48
2022-08-14T04:08:29.502Z,6.80
2022-08-14T04:11:00.824Z,8.07
2022-08-14T04:13:31.748Z,8.52
2022-08-14T04:16:05.168Z,8.45
2022-08-14T04:18:40.052Z,8.60
2022-08-14T04:21:11.492Z,7.43
2022-08-14T04:23:40.313Z,8.20
2022-08-14T04:26:15.023Z,5.82
2022-08-14T04:29:07.053Z,7.32
2022-08-14T04:32:58.926Z,5.65
2022-08-14T04:34:41.816Z,8.45
2022-08-14T04:37:28.202Z,5.22
2022-08-14T04:40:23.500Z,5.20
2022-08-14T04:43:17.746Z,5.38
2022-08-14T04:45:51.273Z,5.75
2022-08-14T04:48:39.394Z,7.22
2022-08-14T04:51:14.539Z,6.18
2022-08-14T04:53:46.638Z,7.05
2022-08-14T04:56:34.347Z,5.30
2022-08-14T04:59:10.005Z,7.50
2022-08-14T05:01:48.975Z,6.30
2022-08-14T05:04:21.362Z,5.10
2022-08-14T05:06:54.198Z,8.38
2022-08-14T05:09:24.682Z,8.57
2022-08-14T05:12:04.240Z,7.00
2022-08-14T05:14:55.076Z,6.32
2022-08-14T05:17:31.888Z,8.10
2022-08-14T05:21:04.276Z,5.53
2022-08-14T05:23:05.671Z,5.20
2022-08-14T05:25:39.250Z,6.10
2022-08-14T05:28:12.449Z,6.68
2022-08-14T05:30:46.666Z,10.00
2022-08-14T05:33:19.751Z,8.05
2022-08-14T05:35:51.036Z,6.80
2022-08-14T05:38:31.315Z,7.90
2022-08-14T05:41:00.765Z,6.88
2022-08-14T05:43:41.148Z,6.80
2022-08-14T05:46:15.266Z,6.93
2022-08-14T05:48:45.375Z,7.28
2022-08-14T05:51:15.684Z,8.15
2022-08-14T05:54:00.337Z,10.07
2022-08-14T05:56:33.803Z,8.05
2022-08-14T05:59:07.403Z,9.43
2022-08-14T06:01:36.561Z,11.23
2022-08-14T06:04:06.583Z,9.40
2022-08-14T06:06:38.184Z,8.18
2022-08-14T06:09:10.044Z,8.15
2022-08-14T06:11:40.801Z,8.77
2022-08-14T06:14:12.404Z,11.15
2022-08-14T06:16:49.674Z,9.75
2022-08-14T06:19:24.623Z,10.43
2022-08-14T06:21:59.217Z,9.57
2022-08-14T06:24:35.047Z,11.82
2022-08-14T06:27:06.085Z,11.07
2022-08-14T06:29:40.741Z,9.68
2022-08-14T06:32:37.967Z,10.00
2022-08-14T06:35:02.380Z,10.88
2022-08-14T06:37:47.023Z,10.75
2022-08-14T06:40:27.220Z,10.77
2022-08-14T06:43:00.284Z,12.73
2022-08-14T06:45:31.880Z,11.25
2022-08-14T06:48:01.329Z,10.30
2022-08-14T06:50:33.506Z,12.45
2022-08-14T06:53:03.110Z,11.30
2022-08-14T06:55:34.442Z,13.10
2022-08-14T06:58:05.880Z,11.63
2022-08-14T07:01:11.695Z,11.43
2022-08-14T07:03:58.388Z,11.10
2022-08-14T07:06:46.241Z,11.75
2022-08-14T07:09:22.452Z,11.57
2022-08-14T07:11:51.740Z,11.95
2022-08-14T07:14:23.379Z,12.13
2022-08-14T07:16:52.450Z,11.48
2022-08-14T07:19:23.238Z,12.15
2022-08-14T07:21:51.512Z,11.75
2022-08-14T07:24:26.460Z,11.68
2022-08-14T07:27:00.094Z,11.57
2022-08-14T07:29:29.135Z,11.20
2022-08-14T07:32:00.468Z,12.18
2022-08-14T07:34:40.644Z,11.85
2022-08-14T07:37:09.847Z,12.85
2022-08-14T07:39:39.455Z,12.27
2022-08-14T07:42:15.387Z,11.23
2022-08-14T07:44:50.321Z,11.35
2022-08-14T07:47:21.554Z,11.93
2022-08-14T07:50:03.177Z,13.13
2022-08-14T07:52:32.656Z,12.60
2022-08-14T07:55:02.464Z,11.77
2022-08-14T07:57:31.589Z,12.70
2022-08-14T07:59:59.818Z,12.63
2022-08-14T08:02:32.781Z,12.43
2022-08-14T08:05:05.453Z,12.13
2022-08-14T08:07:34.320Z,11.85
2022-08-14T08:10:46.781Z,11.70
2022-08-14T08:13:24.709Z,12.05
2022-08-14T08:16:00.494Z,12.30
2022-08-14T08:18:32.396Z,11.38
2022-08-14T08:21:07.577Z,12.50
2022-08-14T08:23:40.803Z,12.75
2022-08-14T08:26:21.343Z,14.25
2022-08-14T08:28:57.931Z,12.40
2022-08-14T08:31:32.899Z,12.80
2022-08-14T08:34:07.233Z,12.60
2022-08-14T08:36:46.843Z,11.57
2022-08-14T08:39:22.348Z,11.50
2022-08-14T08:41:56.030Z,11.85
2022-08-14T08:44:35.336Z,15.25
2022-08-14T08:47:06.489Z,11.13
2022-08-14T08:49:43.196Z,11.65
2022-08-14T08:52:24.614Z,11.85
2022-08-14T08:54:58.781Z,13.05
2022-08-14T08:57:28.369Z,11.85
2022-08-14T09:00:00.659Z,11.32
2022-08-14T09:02:32.455Z,11.68
2022-08-14T09:05:07.430Z,12.38
2022-08-14T09:07:36.781Z,12.30
2022-08-14T09:10:05.507Z,11.32
2022-08-14T09:12:38.693Z,13.10
2022-08-14T09:15:11.883Z,12.00
2022-08-14T09:17:42.733Z,12.68
2022-08-14T09:20:12.841Z,11.10
2022-08-14T09:22:48.191Z,11.95
2022-08-14T09:25:19.883Z,12.75
2022-08-14T09:28:08.694Z,11.25
2022-08-14T09:30:40.831Z,12.20
2022-08-14T09:33:32.854Z,13.68
2022-08-14T09:36:26.828Z,11.57
2022-08-14T09:39:21.180Z,11.27
2022-08-14T09:42:20.089Z,10.85
2022-08-14T09:45:11.815Z,12.35
2022-08-14T09:47:51.828Z,11.40
2022-08-14T09:50:26.901Z,11.23
2022-08-14T09:52:59.161Z,11.38
2022-08-14T09:55:36.763Z,14.75
2022-08-14T09:58:14.821Z,10.73
2022-08-14T10:00:50.525Z,11.27
2022-08-14T10:03:33.050Z,11.25
2022-08-14T10:06:10.719Z,10.75
2022-08-14T10:08:44.873Z,10.98
2022-08-14T10:11:31.082Z,11.18
2022-08-14T10:14:21.113Z,11.55
2022-08-14T10:17:08.418Z,10.25
2022-08-14T10:19:48.883Z,12.80
2022-08-14T10:23:15.574Z,11.07
2022-08-14T10:25:14.332Z,10.95
2022-08-14T10:27:46.491Z,10.40
2022-08-14T10:30:22.809Z,11.35
2022-08-14T10:32:55.973Z,11.00
2022-08-14T10:35:31.145Z,11.50
2022-08-14T10:38:01.903Z,10.75
2022-08-14T10:40:38.011Z,12.40
2022-08-14T10:43:25.784Z,12.07
2022-08-14T10:46:04.170Z,11.45
2022-08-14T10:49:00.887Z,11.18
2022-08-14T10:51:33.888Z,10.93
2022-08-14T10:54:26.138Z,11.32
2022-08-14T10:56:58.805Z,11.32
2022-08-14T10:59:30.619Z,12.25
2022-08-14T11:02:04.804Z,11.93
2022-08-14T11:04:35.794Z,14.35
2022-08-14T11:07:21.221Z,11.30
2022-08-14T11:09:55.630Z,14.55
2022-08-14T11:12:34.983Z,11.45
2022-08-14T11:15:12.592Z,11.88
2022-08-14T11:17:42.091Z,12.20
2022-08-14T11:20:19.993Z,12.48
2022-08-14T11:22:57.979Z,14.48
2022-08-14T11:25:43.547Z,12.07
2022-08-14T11:28:19.159Z,12.40
2022-08-14T11:30:53.661Z,12.13
2022-08-14T11:33:24.735Z,11.82
2022-08-14T11:35:59.698Z,12.00
2022-08-14T11:38:32.457Z,12.38
2022-08-14T11:41:01.303Z,13.02
2022-08-14T11:43:30.584Z,12.45
2022-08-14T11:46:03.749Z,14.95
2022-08-14T11:49:02.642Z,11.48
2022-08-14T11:51:30.643Z,11.68
2022-08-14T11:54:08.247Z,12.60
2022-08-14T11:56:37.232Z,12.75
2022-08-14T11:59:10.282Z,12.95
2022-08-14T12:01:41.402Z,12.27
2022-08-14T12:04:21.848Z,11.70
2022-08-14T12:07:08.180Z,11.20
2022-08-14T12:09:37.938Z,12.23
2022-08-14T12:12:16.171Z,12.65
2022-08-14T12:15:03.926Z,12.65
2022-08-14T12:17:49.404Z,14.38
2022-08-14T12:20:30.088Z,12.13
2022-08-14T12:23:05.581Z,12.80
2022-08-14T12:25:37.903Z,13.57
2022-08-14T12:28:27.325Z,12.02
2022-08-14T12:31:02.877Z,11.85
2022-08-14T12:33:34.463Z,11.48
2022-08-14T12:36:06.313Z,12.45
2022-08-14T12:38:43.512Z,13.93
2022-08-14T12:41:20.581Z,11.48
2022-08-14T12:43:53.688Z,11.30
2022-08-14T12:46:28.629Z,12.10
2022-08-14T12:48:58.916Z,11.60
2022-08-14T12:51:28.445Z,13.38
2022-08-14T12:54:05.218Z,11.98
2022-08-14T12:56:49.075Z,11.43
2022-08-14T12:59:18.963Z,16.15
2022-08-14T13:01:59.278Z,11.32
2022-08-14T13:04:35.426Z,12.15
2022-08-14T13:07:12.941Z,11.05
2022-08-14T13:09:45.071Z,11.48
2022-08-14T13:12:31.934Z,10.82
2022-08-14T13:15:08.849Z,10.75
2022-08-14T13:17:44.007Z,10.73
2022-08-14T13:20:23.265Z,11.63
2022-08-14T13:22:56.207Z,10.45
2022-08-14T13:25:31.807Z,10.02
2022-08-14T13:28:05.203Z,10.02
2022-08-14T13:30:44.451Z,9.98
2022-08-14T13:33:16.624Z,9.98
2022-08-14T13:35:52.447Z,10.20
2022-08-14T13:38:22.990Z,9.35
2022-08-14T13:40:57.055Z,8.88
2022-08-14T13:43:31.406Z,9.00
2022-08-14T13:46:08.959Z,9.50
2022-08-14T13:48:39.973Z,7.22
2022-08-14T13:51:17.191Z,7.90
2022-08-14T13:54:07.057Z,8.63
2022-08-14T13:57:07.118Z,10.10
2022-08-14T13:59:45.063Z,8.30
2022-08-14T14:02:31.555Z,8.43
2022-08-14T14:05:08.439Z,7.72
2022-08-14T14:07:39.369Z,8.23
2022-08-14T14:10:12.011Z,7.15
2022-08-14T14:12:56.155Z,6.60
2022-08-14T14:15:33.873Z,7.38
2022-08-14T14:18:15.318Z,7.82
2022-08-14T14:21:02.853Z,7.30
2022-08-14T14:23:37.523Z,7.75
2022-08-14T14:26:08.069Z,10.25
2022-08-14T14:28:46.145Z,8.23
2022-08-14T14:31:15.019Z,10.02
2022-08-14T14:33:52.246Z,8.02
2022-08-14T14:36:28.964Z,8.75
2022-08-14T14:39:01.227Z,11.20
2022-08-14T14:41:38.112Z,7.53
2022-08-14T14:44:21.771Z,8.10
2022-08-14T14:46:53.219Z,7.50
2022-08-14T14:49:31.864Z,7.93
2022-08-14T14:52:26.999Z,8.13
2022-08-14T14:54:58.834Z,8.13
2022-08-14T14:57:35.603Z,7.78
2022-08-14T15:00:12.943Z,8.00
2022-08-14T15:02:46.136Z,8.25
2022-08-14T15:05:17.299Z,9.13
2022-08-14T15:07:50.111Z,8.10
2022-08-14T15:10:27.415Z,9.68
2022-08-14T15:13:03.745Z,8.85
2022-08-14T15:15:37.245Z,8.23
2022-08-14T15:18:36.149Z,8.15
2022-08-14T15:20:58.140Z,10.18
2022-08-14T15:23:32.288Z,11.38
2022-08-14T15:26:30.931Z,11.45
2022-08-14T15:29:05.717Z,10.05
2022-08-14T15:31:37.527Z,8.77
2022-08-14T15:34:44.603Z,8.93
2022-08-14T15:37:12.614Z,9.88
2022-08-14T15:39:42.197Z,8.95
2022-08-14T15:42:14.797Z,8.68
2022-08-14T15:44:58.414Z,9.52
2022-08-14T15:47:32.235Z,10.77
2022-08-14T15:50:04.875Z,11.88
2022-08-14T15:52:37.039Z,12.13
2022-08-14T15:55:13.053Z,11.48
2022-08-14T15:58:02.232Z,15.25
2022-08-14T16:00:54.371Z,11.90
2022-08-14T16:03:27.008Z,11.40
2022-08-14T16:06:03.070Z,12.07
2022-08-14T16:08:32.893Z,14.75
2022-08-14T16:11:03.357Z,11.40
2022-08-14T16:13:39.740Z,12.48
2022-08-14T16:16:34.736Z,12.95
2022-08-14T16:19:09.663Z,12.82
2022-08-14T16:22:02.648Z,12.90
2022-08-14T16:27:38.681Z,9.98
2022-08-14T16:30:25.588Z,12.88
2022-08-14T16:33:01.213Z,11.70
2022-08-14T16:35:55.743Z,11.27
2022-08-14T16:38:45.620Z,11.80
2022-08-14T16:41:21.998Z,11.93
2022-08-14T16:43:53.705Z,13.85
2022-08-14T16:46:34.778Z,11.20
2022-08-14T16:49:06.130Z,11.10
2022-08-14T16:51:42.044Z,15.93
2022-08-14T16:54:33.909Z,14.35
2022-08-14T16:57:18.537Z,12.77
2022-08-14T16:59:57.312Z,13.45
2022-08-14T17:02:39.997Z,10.10
2022-08-14T17:05:22.440Z,14.45
2022-08-14T17:08:32.370Z,11.43
2022-08-14T17:11:09.691Z,14.45
2022-08-14T17:13:59.591Z,15.15
2022-08-14T17:16:37.491Z,16.75
2022-08-14T17:19:09.934Z,13.18
2022-08-14T17:21:47.412Z,13.32
2022-08-14T17:24:56.538Z,15.32
2022-08-14T17:27:08.737Z,12.18
2022-08-14T17:29:54.295Z,12.75
2022-08-14T17:32:56.153Z,15.20
2022-08-14T17:35:57.761Z,13.43
2022-08-14T17:38:38.812Z,13.40
2022-08-14T17:41:37.459Z,10.50
2022-08-14T17:44:21.914Z,12.23
2022-08-14T17:46:55.261Z,13.38
2022-08-14T17:49:28.198Z,11.50
2022-08-14T17:52:07.879Z,15.80
2022-08-14T17:54:59.094Z,12.43
2022-08-14T17:57:35.470Z,13.73
2022-08-14T18:00:14.585Z,13.93
2022-08-14T18:02:51.062Z,12.88
2022-08-14T18:05:23.341Z,12.93
2022-08-14T18:08:33.557Z,15.73
2022-08-14T18:11:06.986Z,12.25
2022-08-14T18:13:50.985Z,15.07
2022-08-14T18:16:22.136Z,16.92
2022-08-14T18:18:51.580Z,13.32
2022-08-14T18:21:25.634Z,13.85
2022-08-14T18:24:28.258Z,11.77
2022-08-14T18:27:03.456Z,8.98
2022-08-14T18:29:54.943Z,7.82
2022-08-14T18:32:46.222Z,6.68
2022-08-14T18:35:21.114Z,4.72
2022-08-14T18:37:55.880Z,6.68
2022-08-14T18:40:34.440Z,3.95
2022-08-14T18:43:03.260Z,3.88
2022-08-14T18:45:41.478Z,5.70
2022-08-14T18:48:28.404Z,7.28
2022-08-14T18:51:04.913Z,5.60
2022-08-14T18:53:52.344Z,8.95
2022-08-14T18:56:40.892Z,9.13
2022-08-14T18:59:35.458Z,5.43
2022-08-14T19:02:43.034Z,8.13
2022-08-14T19:05:13.480Z,6.50
2022-08-14T19:07:43.622Z,6.30
2022-08-14T19:10:31.710Z,7.28
2022-08-14T19:13:12.076Z,6.90
2022-08-14T19:15:43.791Z,7.70
2022-08-14T19:18:25.851Z,7.70
2022-08-14T19:20:59.519Z,6.68
2022-08-14T19:23:43.036Z,7.65
2022-08-14T19:26:34.058Z,8.85
2022-08-14T19:29:23.992Z,8.90
2022-08-14T19:31:55.738Z,8.88
2022-08-14T19:34:40.456Z,11.52
2022-08-14T19:37:48.458Z,8.85
2022-08-14T19:40:34.060Z,9.35
2022-08-14T19:43:03.342Z,8.10
2022-08-14T19:45:35.182Z,8.43
2022-08-14T19:48:05.262Z,8.35
2022-08-14T19:50:40.854Z,9.52
2022-08-14T19:53:17.220Z,10.25
2022-08-14T19:56:01.267Z,12.15
2022-08-14T19:58:55.159Z,8.80
2022-08-14T20:01:36.419Z,9.07
2022-08-14T20:04:45.332Z,10.90
2022-08-14T20:07:01.857Z,10.30
2022-08-14T20:11:03.514Z,10.88
2022-08-14T20:12:35.552Z,10.13
2022-08-14T20:15:47.167Z,8.52
2022-08-14T20:18:49.568Z,38.90
2022-08-14T20:21:15.094Z,14.50
2022-08-14T20:23:43.356Z,11.80
2022-08-14T20:26:30.763Z,10.73
2022-08-14T20:29:07.340Z,9.13
2022-08-14T20:31:38.427Z,13.13
2022-08-14T20:34:15.988Z,9.98
2022-08-14T20:37:10.023Z,10.48
2022-08-14T20:39:43.655Z,11.93
2022-08-14T20:42:43.772Z,10.18
2022-08-14T20:45:19.841Z,9.52
2022-08-14T20:47:55.937Z,10.98
2022-08-14T20:50:28.801Z,12.45
2022-08-14T20:52:58.359Z,10.43
2022-08-14T20:55:30.094Z,9.90
2022-08-14T20:58:09.599Z,13.00
2022-08-14T21:00:52.671Z,10.93
2022-08-14T21:03:35.884Z,11.00
2022-08-14T21:06:29.476Z,11.43
2022-08-14T21:09:01.851Z,10.82
2022-08-14T21:11:34.397Z,11.15
2022-08-14T21:14:20.695Z,12.52
2022-08-14T21:16:58.534Z,11.27
2022-08-14T21:19:30.219Z,12.68
2022-08-14T21:22:01.425Z,12.40
2022-08-14T21:24:47.084Z,10.60
2022-08-14T21:27:21.670Z,11.52
2022-08-14T21:29:54.992Z,10.57
2022-08-14T21:32:47.120Z,12.27
2022-08-14T21:35:24.490Z,14.20
2022-08-14T21:37:55.557Z,11.05
2022-08-14T21:40:42.404Z,10.57
2022-08-14T21:43:17.562Z,9.32
2022-08-14T21:45:51.658Z,11.25
2022-08-14T21:48:21.767Z,11.30
2022-08-14T21:51:02.030Z,11.48
2022-08-14T21:53:58.872Z,12.93
2022-08-14T21:56:38.197Z,15.85
2022-08-14T21:59:10.400Z,11.25
2022-08-14T22:02:00.172Z,11.68
2022-08-14T22:04:32.632Z,12.25
2022-08-14T22:07:07.370Z,10.40
2022-08-14T22:09:37.249Z,10.05
2022-08-14T22:12:47.367Z,10.32
2022-08-14T22:15:07.404Z,11.35
2022-08-14T22:17:36.374Z,11.70
2022-08-14T22:20:16.411Z,11.13
2022-08-14T22:22:56.121Z,13.55
2022-08-14T22:25:33.140Z,11.25
2022-08-14T22:28:04.377Z,12.88
2022-08-14T22:30:34.264Z,11.27
2022-08-14T22:33:06.726Z,13.63
2022-08-14T22:35:39.014Z,20.38
2022-08-14T22:38:35.707Z,12.32
2022-08-14T22:41:25.386Z,12.52
2022-08-14T22:43:51.221Z,13.88
2022-08-14T22:46:20.763Z,12.90
2022-08-14T22:48:51.068Z,12.35
2022-08-14T22:51:25.545Z,12.93
2022-08-14T22:54:00.389Z,12.95
2022-08-14T22:56:34.325Z,12.90
2022-08-14T22:59:09.520Z,13.13
2022-08-14T23:01:56.985Z,12.95
2022-08-14T23:04:34.740Z,15.23
2022-08-14T23:07:21.945Z,13.05
2022-08-14T23:09:57.001Z,12.30
2022-08-14T23:12:29.299Z,13.30
2022-08-14T23:15:00.400Z,13.90
2022-08-14T23:17:39.132Z,14.90
2022-08-14T23:20:19.231Z,15.75
2022-08-14T23:22:52.637Z,12.82
2022-08-14T23:25:57.290Z,13.40
2022-08-14T23:28:34.736Z,13.02
2022-08-14T23:31:09.296Z,14.52
2022-08-14T23:33:46.144Z,14.32
2022-08-14T23:36:31.582Z,12.98
2022-08-14T23:39:07.106Z,13.05
2022-08-14T23:41:46.267Z,13.82
2022-08-14T23:44:24.538Z,13.70
2022-08-14T23:47:00.565Z,13.27
2022-08-14T23:50:00.968Z,13.55
2022-08-14T23:52:50.151Z,13.85
2022-08-14T23:55:11.137Z,13.70
